Lynchburg, Ohio
Current Conditions -  °F | °C
As of 10:54 PM on Sunday 23 Nov 2014 (Local Time) from KILN Reporting Station
Overcast Overcast  
Wind Chill: 57°   Ceiling: 3100
Heat Index: 57°   Visibility: 10mi
Dew Point: 52°   Wind: 24mph
Humidity: 83%   Direction: 170°S
Pressure: 29.32"   Gusts: 40mph
Location:  39.24°N, 83.79°W
Report Text: KILN 240354Z AUTO 17021G35KT 10SM FEW022 BKN031 OVC060 14/11 A2932 RMK AO2 PK WND 16035/0346 RAE30 SLP929 P0002 T01390111
Loading
Personal Weather Stations






























Interactive Weather Map New forecast layout! Learn more

10-Day Weather Forecast

Advertisements
Track Severe Weather on mobile